MST,Max TemperatureF,Mean TemperatureF,Min TemperatureF,Max Dew PointF,MeanDew PointF,Min DewpointF,Max Humidity, Mean Humidity, Min Humidity, Max Sea Level PressureIn, Mean Sea Level PressureIn, Min Sea Level PressureIn, Max VisibilityMiles, Mean VisibilityMiles, Min VisibilityMiles, Max Wind SpeedMPH, Mean Wind SpeedMPH, Max Gust SpeedMPH,PrecipitationIn, CloudCover, Events, WindDirDegrees
2013-2-1,33,20,8,32,22,3,100,86,67,30.04,29.96,29.86,10,8,2,23,10,30,0.05,5,,285
2013-2-2,35,30,26,30,26,23,93,80,70,30.20,30.10,30.01,10,10,10,32,17,43,0.00,4,,292
2013-2-3,39,26,14,28,22,9,100,79,61,30.03,29.87,29.78,10,10,10,21,8,25,0.00,1,,220
2013-2-4,42,28,15,30,25,12,100,77,61,29.91,29.75,29.67,10,9,0,22,9,29,0.00,3,,247
2013-2-5,37,30,24,28,25,19,87,75,65,29.96,29.85,29.69,10,10,10,17,10,24,0.00,5,,214
2013-2-6,42,33,24,30,27,21,100,74,57,29.99,29.82,29.67,10,10,5,21,9,28,0.00,1,,276
2013-2-7,42,33,24,28,24,19,93,72,53,30.07,30.01,29.93,10,10,4,9,5,,0.00,1,,164
2013-2-8,39,30,21,30,25,18,93,81,65,29.92,29.90,29.87,10,10,10,10,4,,0.00,0,,344
2013-2-9,41,29,17,30,23,12,93,80,53,29.90,29.84,29.77,10,10,10,15,5,,0.00,1,,288
2013-2-10,28,22,17,27,19,12,93,80,68,30.08,29.94,29.82,10,10,5,24,15,31,0.00,8,,320
2013-2-11,35,24,12,19,15,9,86,71,48,30.08,29.96,29.86,10,10,10,16,11,21,0.00,3,,252
2013-2-12,42,32,21,27,22,16,86,69,49,29.95,29.88,29.77,10,10,10,16,9,21,0.00,1,,266
2013-2-13,42,36,30,30,27,19,81,66,56,29.90,29.75,29.64,10,10,10,29,18,37,0.00,3,,281
2013-2-14,30,22,12,23,18,9,93,77,64,30.30,30.19,29.92,10,9,2,33,20,44,0.00,6,,308
2013-2-15,37,24,12,18,13,7,86,68,41,30.34,30.30,30.22,10,10,10,14,5,,0.00,4,,253
2013-2-16,,,,,,,,,,,,,,,,,,,,,,
2013-2-17,,,,,,,,,,,,,,,,,,,,,,
2013-2-18,,,,,,,,,,,,,,,,,,,,,,
2013-2-19,19,16,12,5,1,-2,62,52,45,30.12,30.03,29.98,10,10,10,25,17,29,0.00,0,,114
2013-2-20,24,15,6,10,3,-2,79,62,50,29.98,29.92,29.89,10,10,10,14,9,21,0.00,0,,95
2013-2-21,28,21,14,18,15,10,93,69,59,30.02,29.97,29.92,10,10,10,8,4,,0.00,5,,161
2013-2-22,44,28,12,23,17,9,93,67,36,29.92,29.81,29.66,10,10,10,14,7,16,0.00,1,,195
2013-2-23,46,35,24,27,22,18,74,61,42,29.85,29.66,29.58,10,10,10,17,9,24,0.00,2,,229
2013-2-24,39,32,24,27,20,16,86,63,39,30.08,30.01,29.86,10,10,10,21,13,29,0.00,1,,289
2013-2-25,46,34,21,21,19,16,86,60,34,29.98,29.85,29.77,10,10,10,16,9,20,0.00,0,,197
2013-2-26,37,30,24,27,23,18,75,68,56,30.16,29.97,29.79,10,10,10,25,12,34,0.00,4,,299
2013-2-27,30,26,21,23,21,18,93,78,69,30.26,30.23,30.16,10,10,10,16,10,21,0.00,7,,343
2013-2-28,44,32,21,27,21,18,93,73,37,30.23,30.18,30.12,10,10,8,17,4,24,0.00,3,,277